sensor_id;sensor_type;location;lat;lon;timestamp;pressure;altitude;pressure_sealevel;temperature;humidity
8575;BME280;4325;42.520;27.448;2023-04-07T00:00:51;100905.75;;;10.11;99.61
8575;BME280;4325;42.520;27.448;2023-04-07T00:03:18;100913.50;;;10.19;98.83
8575;BME280;4325;42.520;27.448;2023-04-07T00:05:47;100917.03;;;10.15;94.49
8575;BME280;4325;42.520;27.448;2023-04-07T00:08:14;100905.75;;;10.11;92.73
8575;BME280;4325;42.520;27.448;2023-04-07T00:10:41;100910.41;;;10.11;86.99
8575;BME280;4325;42.520;27.448;2023-04-07T00:13:07;100909.56;;;10.10;81.85
8575;BME280;4325;42.520;27.448;2023-04-07T00:15:34;100909.53;;;10.05;76.74
8575;BME280;4325;42.520;27.448;2023-04-07T00:18:01;100904.66;;;10.07;73.21
8575;BME280;4325;42.520;27.448;2023-04-07T00:20:28;100907.09;;;10.09;71.29
8575;BME280;4325;42.520;27.448;2023-04-07T00:22:56;100914.25;;;10.10;68.80
8575;BME280;4325;42.520;27.448;2023-04-07T00:25:23;100910.69;;;10.09;65.89
8575;BME280;4325;42.520;27.448;2023-04-07T00:27:50;100905.72;;;10.06;65.44
8575;BME280;4325;42.520;27.448;2023-04-07T00:30:17;100905.16;;;10.04;64.55
8575;BME280;4325;42.520;27.448;2023-04-07T00:32:44;100909.28;;;10.07;63.38
8575;BME280;4325;42.520;27.448;2023-04-07T00:35:11;100901.88;;;10.02;61.91
8575;BME280;4325;42.520;27.448;2023-04-07T00:37:37;100905.44;;;10.08;61.09
8575;BME280;4325;42.520;27.448;2023-04-07T00:40:07;100909.81;;;10.04;61.73
8575;BME280;4325;42.520;27.448;2023-04-07T00:42:34;100914.75;;;10.07;61.26
8575;BME280;4325;42.520;27.448;2023-04-07T00:45:01;100902.41;;;9.99;61.00
8575;BME280;4325;42.520;27.448;2023-04-07T00:47:28;100910.63;;;10.04;59.98
8575;BME280;4325;42.520;27.448;2023-04-07T00:49:55;100908.19;;;10.03;59.18
8575;BME280;4325;42.520;27.448;2023-04-07T00:52:23;100913.34;;;9.99;58.68
8575;BME280;4325;42.520;27.448;2023-04-07T00:54:53;100920.16;;;9.96;58.38
8575;BME280;4325;42.520;27.448;2023-04-07T00:57:22;100911.69;;;9.98;57.98
8575;BME280;4325;42.520;27.448;2023-04-07T00:59:49;100918.25;;;9.97;57.14
8575;BME280;4325;42.520;27.448;2023-04-07T01:02:21;100933.28;;;9.94;58.07
8575;BME280;4325;42.520;27.448;2023-04-07T01:04:54;100928.06;;;9.93;57.91
8575;BME280;4325;42.520;27.448;2023-04-07T01:07:27;100925.03;;;9.89;58.09
8575;BME280;4325;42.520;27.448;2023-04-07T01:09:57;100926.38;;;9.87;58.04
8575;BME280;4325;42.520;27.448;2023-04-07T01:12:35;100923.09;;;9.85;58.77
8575;BME280;4325;42.520;27.448;2023-04-07T01:15:09;100937.31;;;9.87;58.30
8575;BME280;4325;42.520;27.448;2023-04-07T01:17:37;100929.06;;;9.82;58.22
8575;BME280;4325;42.520;27.448;2023-04-07T01:20:07;100923.59;;;9.82;59.02
8575;BME280;4325;42.520;27.448;2023-04-07T01:22:40;100932.38;;;9.84;60.09
8575;BME280;4325;42.520;27.448;2023-04-07T01:25:22;100927.44;;;9.86;60.37
8575;BME280;4325;42.520;27.448;2023-04-07T01:28:12;100929.66;;;9.89;59.66
8575;BME280;4325;42.520;27.448;2023-04-07T01:30:43;100928.06;;;9.93;60.22
8575;BME280;4325;42.520;27.448;2023-04-07T01:33:11;100941.22;;;9.96;60.89
8575;BME280;4325;42.520;27.448;2023-04-07T01:35:40;100935.75;;;9.96;59.26
8575;BME280;4325;42.520;27.448;2023-04-07T01:38:08;100935.19;;;9.94;58.54
8575;BME280;4325;42.520;27.448;2023-04-07T01:40:38;100928.38;;;9.96;58.86
8575;BME280;4325;42.520;27.448;2023-04-07T01:43:06;100937.13;;;9.98;58.07
8575;BME280;4325;42.520;27.448;2023-04-07T01:45:34;100930.31;;;10.01;58.67
8575;BME280;4325;42.520;27.448;2023-04-07T01:48:04;100926.50;;;10.02;58.31
8575;BME280;4325;42.520;27.448;2023-04-07T01:50:32;100932.22;;;10.01;57.47
8575;BME280;4325;42.520;27.448;2023-04-07T01:52:59;100936.56;;;9.96;56.17
8575;BME280;4325;42.520;27.448;2023-04-07T01:55:27;100937.41;;;9.97;56.84
8575;BME280;4325;42.520;27.448;2023-04-07T01:57:54;100936.06;;;10.00;55.81
8575;BME280;4325;42.520;27.448;2023-04-07T02:00:21;100936.25;;;9.93;56.43
8575;BME280;4325;42.520;27.448;2023-04-07T02:02:51;100935.75;;;9.96;57.45
8575;BME280;4325;42.520;27.448;2023-04-07T02:05:22;100934.66;;;9.97;57.36
8575;BME280;4325;42.520;27.448;2023-04-07T02:07:52;100932.75;;;9.98;56.71
8575;BME280;4325;42.520;27.448;2023-04-07T02:10:23;100938.47;;;9.96;55.27
8575;BME280;4325;42.520;27.448;2023-04-07T02:12:51;100940.09;;;9.92;55.67
8575;BME280;4325;42.520;27.448;2023-04-07T02:15:18;100940.69;;;9.99;56.92
8575;BME280;4325;42.520;27.448;2023-04-07T02:17:48;100949.16;;;9.98;55.10
8575;BME280;4325;42.520;27.448;2023-04-07T02:20:17;100947.78;;;9.95;54.22
8575;BME280;4325;42.520;27.448;2023-04-07T02:22:47;100942.56;;;9.93;54.31
8575;BME280;4325;42.520;27.448;2023-04-07T02:25:21;100946.69;;;9.96;54.73
8575;BME280;4325;42.520;27.448;2023-04-07T02:27:48;100958.19;;;9.98;54.53
8575;BME280;4325;42.520;27.448;2023-04-07T02:30:15;100948.84;;;9.94;53.46
8575;BME280;4325;42.520;27.448;2023-04-07T02:32:42;100959.28;;;9.97;53.71
8575;BME280;4325;42.520;27.448;2023-04-07T02:35:10;100952.66;;;9.93;54.04
8575;BME280;4325;42.520;27.448;2023-04-07T02:37:37;100946.13;;;9.94;54.33
8575;BME280;4325;42.520;27.448;2023-04-07T02:40:06;100947.19;;;9.93;54.49
8575;BME280;4325;42.520;27.448;2023-04-07T02:42:33;100940.09;;;9.92;54.67
8575;BME280;4325;42.520;27.448;2023-04-07T02:45:01;100945.81;;;9.90;54.57
8575;BME280;4325;42.520;27.448;2023-04-07T02:47:28;100940.63;;;9.89;54.38
8575;BME280;4325;42.520;27.448;2023-04-07T02:49:55;100946.59;;;9.86;54.33
8575;BME280;4325;42.520;27.448;2023-04-07T02:52:22;100951.50;;;9.84;55.02
8575;BME280;4325;42.520;27.448;2023-04-07T02:54:48;100951.25;;;9.85;55.24
8575;BME280;4325;42.520;27.448;2023-04-07T02:57:17;100959.19;;;9.87;55.44
8575;BME280;4325;42.520;27.448;2023-04-07T02:59:44;100956.50;;;9.92;55.41
8575;BME280;4325;42.520;27.448;2023-04-07T03:02:11;100950.19;;;9.91;54.98
8575;BME280;4325;42.520;27.448;2023-04-07T03:04:38;100961.16;;;9.91;55.74
8575;BME280;4325;42.520;27.448;2023-04-07T03:07:05;100958.97;;;9.93;55.80
8575;BME280;4325;42.520;27.448;2023-04-07T03:09:31;100952.66;;;9.93;55.87
8575;BME280;4325;42.520;27.448;2023-04-07T03:11:58;100950.72;;;9.88;56.10
8575;BME280;4325;42.520;27.448;2023-04-07T03:14:28;100951.00;;;9.87;55.86
8575;BME280;4325;42.520;27.448;2023-04-07T03:16:54;100954.25;;;9.84;56.03
8575;BME280;4325;42.520;27.448;2023-04-07T03:19:21;100959.66;;;9.79;57.01
8575;BME280;4325;42.520;27.448;2023-04-07T03:21:49;100954.47;;;9.77;57.35
8575;BME280;4325;42.520;27.448;2023-04-07T03:24:16;100955.88;;;9.80;57.87
8575;BME280;4325;42.520;27.448;2023-04-07T03:26:43;100960.78;;;9.78;57.70
8575;BME280;4325;42.520;27.448;2023-04-07T03:29:10;100967.59;;;9.75;58.26
8575;BME280;4325;42.520;27.448;2023-04-07T03:31:38;100972.78;;;9.77;58.41
8575;BME280;4325;42.520;27.448;2023-04-07T03:34:05;100980.47;;;9.80;56.26
8575;BME280;4325;42.520;27.448;2023-04-07T03:36:32;100990.25;;;9.76;55.36
8575;BME280;4325;42.520;27.448;2023-04-07T03:38:58;100993.25;;;9.74;54.69
8575;BME280;4325;42.520;27.448;2023-04-07T03:41:25;101000.06;;;9.72;54.97
8575;BME280;4325;42.520;27.448;2023-04-07T03:43:52;100991.81;;;9.67;55.56
8575;BME280;4325;42.520;27.448;2023-04-07T03:46:19;100995.06;;;9.64;56.06
8575;BME280;4325;42.520;27.448;2023-04-07T03:48:48;100996.16;;;9.63;56.21
8575;BME280;4325;42.520;27.448;2023-04-07T03:51:15;100995.06;;;9.64;57.36
8575;BME280;4325;42.520;27.448;2023-04-07T03:53:42;100997.81;;;9.64;58.05
8575;BME280;4325;42.520;27.448;2023-04-07T03:56:09;100997.56;;;9.65;58.54
8575;BME280;4325;42.520;27.448;2023-04-07T03:58:36;101000.03;;;9.67;60.41
8575;BME280;4325;42.520;27.448;2023-04-07T04:01:03;101002.25;;;9.70;59.92
8575;BME280;4325;42.520;27.448;2023-04-07T04:03:30;100999.25;;;9.71;57.99
8575;BME280;4325;42.520;27.448;2023-04-07T04:05:58;100994.88;;;9.70;58.08
8575;BME280;4325;42.520;27.448;2023-04-07T04:08:25;100994.09;;;9.75;58.19
8575;BME280;4325;42.520;27.448;2023-04-07T04:10:52;101009.16;;;9.77;55.94
8575;BME280;4325;42.520;27.448;2023-04-07T04:13:19;101008.34;;;9.77;56.44
8575;BME280;4325;42.520;27.448;2023-04-07T04:15:46;101007.25;;;9.78;56.25
8575;BME280;4325;42.520;27.448;2023-04-07T04:18:13;101009.44;;;9.81;55.79
8575;BME280;4325;42.520;27.448;2023-04-07T04:20:40;101015.78;;;9.86;55.31
8575;BME280;4325;42.520;27.448;2023-04-07T04:23:08;101010.59;;;9.85;55.23
8575;BME280;4325;42.520;27.448;2023-04-07T04:25:35;101020.47;;;9.91;55.98
8575;BME280;4325;42.520;27.448;2023-04-07T04:28:04;101015.06;;;9.96;57.96
8575;BME280;4325;42.520;27.448;2023-04-07T04:30:31;101020.56;;;10.01;58.81
8575;BME280;4325;42.520;27.448;2023-04-07T04:32:57;101030.50;;;10.07;57.65
8575;BME280;4325;42.520;27.448;2023-04-07T04:35:24;101031.94;;;10.15;55.98
8575;BME280;4325;42.520;27.448;2023-04-07T04:37:51;101029.47;;;10.13;55.83
8575;BME280;4325;42.520;27.448;2023-04-07T04:40:19;101033.91;;;10.19;56.69
8575;BME280;4325;42.520;27.448;2023-04-07T04:42:46;101041.59;;;10.27;55.68
8575;BME280;4325;42.520;27.448;2023-04-07T04:45:13;101041.09;;;10.30;55.47
8575;BME280;4325;42.520;27.448;2023-04-07T04:47:40;101047.16;;;10.37;53.75
8575;BME280;4325;42.520;27.448;2023-04-07T04:50:09;101048.81;;;10.38;52.91
8575;BME280;4325;42.520;27.448;2023-04-07T04:52:36;101049.34;;;10.35;51.78
8575;BME280;4325;42.520;27.448;2023-04-07T04:55:04;101053.47;;;10.38;51.94
8575;BME280;4325;42.520;27.448;2023-04-07T04:57:32;101051.50;;;10.33;52.01
8575;BME280;4325;42.520;27.448;2023-04-07T05:00:01;101055.97;;;10.44;52.78
8575;BME280;4325;42.520;27.448;2023-04-07T05:02:28;101060.38;;;10.45;52.59
8575;BME280;4325;42.520;27.448;2023-04-07T05:04:55;101072.94;;;10.46;53.05
8575;BME280;4325;42.520;27.448;2023-04-07T05:07:22;101062.81;;;10.47;53.24
8575;BME280;4325;42.520;27.448;2023-04-07T05:09:49;101072.94;;;10.46;52.69
8575;BME280;4325;42.520;27.448;2023-04-07T05:12:16;101080.09;;;10.47;53.41
8575;BME280;4325;42.520;27.448;2023-04-07T05:14:44;101087.19;;;10.43;52.34
8575;BME280;4325;42.520;27.448;2023-04-07T05:17:11;101082.22;;;10.40;51.99
8575;BME280;4325;42.520;27.448;2023-04-07T05:19:38;101087.66;;;10.35;52.38
8575;BME280;4325;42.520;27.448;2023-04-07T05:22:04;101086.81;;;10.35;52.43
8575;BME280;4325;42.520;27.448;2023-04-07T05:24:31;101095.34;;;10.38;51.90
8575;BME280;4325;42.520;27.448;2023-04-07T05:26:58;101095.91;;;10.40;51.72
8575;BME280;4325;42.520;27.448;2023-04-07T05:29:26;101107.88;;;10.34;51.14
8575;BME280;4325;42.520;27.448;2023-04-07T05:31:54;101101.81;;;10.27;50.45
8575;BME280;4325;42.520;27.448;2023-04-07T05:34:21;101102.88;;;10.21;50.78
8575;BME280;4325;42.520;27.448;2023-04-07T05:36:48;101108.13;;;10.28;52.04
8575;BME280;4325;42.520;27.448;2023-04-07T05:39:15;101104.63;;;10.37;51.33
8575;BME280;4325;42.520;27.448;2023-04-07T05:41:42;101101.97;;;10.47;50.88
8575;BME280;4325;42.520;27.448;2023-04-07T05:44:09;101107.25;;;10.59;50.33
8575;BME280;4325;42.520;27.448;2023-04-07T05:46:36;101110.09;;;10.69;49.74
8575;BME280;4325;42.520;27.448;2023-04-07T05:49:04;101117.81;;;10.77;50.44
8575;BME280;4325;42.520;27.448;2023-04-07T05:51:31;101113.75;;;10.85;49.38
8575;BME280;4325;42.520;27.448;2023-04-07T05:54:00;101116.81;;;10.93;49.15
8575;BME280;4325;42.520;27.448;2023-04-07T05:56:28;101114.41;;;11.02;48.41
8575;BME280;4325;42.520;27.448;2023-04-07T05:58:55;101094.72;;;11.10;47.83
8575;BME280;4325;42.520;27.448;2023-04-07T06:01:23;101104.38;;;11.22;47.38
8575;BME280;4325;42.520;27.448;2023-04-07T06:03:50;101110.22;;;11.36;47.47
8575;BME280;4325;42.520;27.448;2023-04-07T06:06:18;101112.47;;;11.54;47.35
8575;BME280;4325;42.520;27.448;2023-04-07T06:08:45;101122.94;;;11.67;45.75
8575;BME280;4325;42.520;27.448;2023-04-07T06:11:12;101123.81;;;11.73;42.58
8575;BME280;4325;42.520;27.448;2023-04-07T06:13:39;101128.72;;;11.71;42.47
8575;BME280;4325;42.520;27.448;2023-04-07T06:16:06;101129.53;;;11.71;43.00
8575;BME280;4325;42.520;27.448;2023-04-07T06:18:33;101128.50;;;11.87;42.02
8575;BME280;4325;42.520;27.448;2023-04-07T06:21:01;101129.91;;;12.05;41.67
8575;BME280;4325;42.520;27.448;2023-04-07T06:23:29;101133.22;;;12.17;41.12
8575;BME280;4325;42.520;27.448;2023-04-07T06:25:56;101132.41;;;12.27;40.37
8575;BME280;4325;42.520;27.448;2023-04-07T06:28:23;101128.03;;;12.31;39.94
8575;BME280;4325;42.520;27.448;2023-04-07T06:30:50;101131.84;;;12.20;39.31
8575;BME280;4325;42.520;27.448;2023-04-07T06:33:17;101136.81;;;12.33;39.74
8575;BME280;4325;42.520;27.448;2023-04-07T06:35:44;101139.56;;;12.43;39.71
8575;BME280;4325;42.520;27.448;2023-04-07T06:38:10;101144.78;;;12.59;39.64
8575;BME280;4325;42.520;27.448;2023-04-07T06:40:39;101140.09;;;12.85;39.23
8575;BME280;4325;42.520;27.448;2023-04-07T06:43:06;101147.78;;;12.93;38.12
8575;BME280;4325;42.520;27.448;2023-04-07T06:45:33;101143.91;;;13.14;38.14
8575;BME280;4325;42.520;27.448;2023-04-07T06:47:59;101147.97;;;13.37;38.17
8575;BME280;4325;42.520;27.448;2023-04-07T06:50:26;101155.31;;;13.62;37.78
8575;BME280;4325;42.520;27.448;2023-04-07T06:52:53;101150.28;;;13.79;37.14
8575;BME280;4325;42.520;27.448;2023-04-07T06:55:20;101145.69;;;14.13;37.36
8575;BME280;4325;42.520;27.448;2023-04-07T06:57:48;101153.78;;;14.38;36.77
8575;BME280;4325;42.520;27.448;2023-04-07T07:00:17;101153.63;;;14.59;35.56
8575;BME280;4325;42.520;27.448;2023-04-07T07:02:44;101155.88;;;14.57;35.44
8575;BME280;4325;42.520;27.448;2023-04-07T07:05:11;101155.13;;;14.46;34.69
8575;BME280;4325;42.520;27.448;2023-04-07T07:07:38;101165.34;;;14.45;34.36
8575;BME280;4325;42.520;27.448;2023-04-07T07:10:07;101167.59;;;14.33;34.58
8575;BME280;4325;42.520;27.448;2023-04-07T07:12:34;101172.06;;;14.19;34.59
8575;BME280;4325;42.520;27.448;2023-04-07T07:15:03;101178.63;;;14.33;34.91
8575;BME280;4325;42.520;27.448;2023-04-07T07:17:30;101171.22;;;14.63;35.08
8575;BME280;4325;42.520;27.448;2023-04-07T07:19:57;101177.28;;;14.98;35.22
8575;BME280;4325;42.520;27.448;2023-04-07T07:22:24;101169.41;;;15.39;35.23
8575;BME280;4325;42.520;27.448;2023-04-07T07:24:51;101184.00;;;15.68;33.86
8575;BME280;4325;42.520;27.448;2023-04-07T07:27:18;101178.53;;;16.06;33.33
8575;BME280;4325;42.520;27.448;2023-04-07T07:29:45;101172.28;;;16.56;33.17
8575;BME280;4325;42.520;27.448;2023-04-07T07:32:13;101173.13;;;17.35;32.55
8575;BME280;4325;42.520;27.448;2023-04-07T07:34:40;101180.44;;;18.34;31.50
8575;BME280;4325;42.520;27.448;2023-04-07T07:37:07;101173.09;;;18.96;30.07
8575;BME280;4325;42.520;27.448;2023-04-07T07:39:33;101184.88;;;19.02;28.45
8575;BME280;4325;42.520;27.448;2023-04-07T07:42:01;101185.09;;;18.61;29.42
8575;BME280;4325;42.520;27.448;2023-04-07T07:44:27;101183.59;;;17.92;31.18
8575;BME280;4325;42.520;27.448;2023-04-07T07:46:54;101186.66;;;18.04;31.62
8575;BME280;4325;42.520;27.448;2023-04-07T07:49:22;101184.44;;;17.65;31.82
8575;BME280;4325;42.520;27.448;2023-04-07T07:51:49;101178.69;;;17.62;31.46
8575;BME280;4325;42.520;27.448;2023-04-07T07:54:16;101174.97;;;17.80;31.55
8575;BME280;4325;42.520;27.448;2023-04-07T07:56:43;101179.97;;;18.99;31.36
8575;BME280;4325;42.520;27.448;2023-04-07T07:59:10;101182.69;;;19.83;29.07
8575;BME280;4325;42.520;27.448;2023-04-07T08:01:37;101188.19;;;20.30;28.75
8575;BME280;4325;42.520;27.448;2023-04-07T08:04:03;101172.75;;;20.93;28.52
8575;BME280;4325;42.520;27.448;2023-04-07T08:06:32;101190.41;;;21.23;27.58
8575;BME280;4325;42.520;27.448;2023-04-07T08:08:58;101180.75;;;20.09;28.73
8575;BME280;4325;42.520;27.448;2023-04-07T08:11:25;101189.59;;;20.11;29.14
8575;BME280;4325;42.520;27.448;2023-04-07T08:13:52;101191.25;;;20.12;29.10
8575;BME280;4325;42.520;27.448;2023-04-07T08:16:20;101189.59;;;21.68;26.79
8575;BME280;4325;42.520;27.448;2023-04-07T08:18:48;101189.22;;;23.11;24.76
8575;BME280;4325;42.520;27.448;2023-04-07T08:21:15;101178.69;;;25.05;23.17
8575;BME280;4325;42.520;27.448;2023-04-07T08:23:43;101180.16;;;25.15;22.90
8575;BME280;4325;42.520;27.448;2023-04-07T08:26:10;101183.00;;;24.87;23.51
8575;BME280;4325;42.520;27.448;2023-04-07T08:28:37;101185.03;;;23.17;24.48
8575;BME280;4325;42.520;27.448;2023-04-07T08:31:04;101189.50;;;19.76;28.65
8575;BME280;4325;42.520;27.448;2023-04-07T08:33:31;101197.28;;;17.43;31.50
8575;BME280;4325;42.520;27.448;2023-04-07T08:35:57;101193.59;;;16.88;33.30
8575;BME280;4325;42.520;27.448;2023-04-07T08:38:24;101201.06;;;16.87;33.24
8575;BME280;4325;42.520;27.448;2023-04-07T08:40:57;101202.59;;;16.80;31.94
8575;BME280;4325;42.520;27.448;2023-04-07T08:43:27;101205.78;;;16.55;32.17
8575;BME280;4325;42.520;27.448;2023-04-07T08:45:56;101195.44;;;16.23;32.99
8575;BME280;4325;42.520;27.448;2023-04-07T08:48:23;101198.41;;;16.08;33.08
8575;BME280;4325;42.520;27.448;2023-04-07T08:50:53;101208.59;;;15.89;32.88
8575;BME280;4325;42.520;27.448;2023-04-07T08:53:24;101205.38;;;15.81;33.35
8575;BME280;4325;42.520;27.448;2023-04-07T08:55:54;101207.91;;;15.97;33.71
8575;BME280;4325;42.520;27.448;2023-04-07T08:58:22;101204.25;;;16.25;33.96
8575;BME280;4325;42.520;27.448;2023-04-07T09:00:49;101204.88;;;16.59;33.72
8575;BME280;4325;42.520;27.448;2023-04-07T09:03:17;101205.66;;;17.10;32.81
8575;BME280;4325;42.520;27.448;2023-04-07T09:05:45;101204.84;;;17.83;32.37
8575;BME280;4325;42.520;27.448;2023-04-07T09:08:12;101201.28;;;18.68;31.38
8575;BME280;4325;42.520;27.448;2023-04-07T09:10:39;101201.16;;;19.17;30.07
8575;BME280;4325;42.520;27.448;2023-04-07T09:13:08;101207.97;;;21.69;27.47
8575;BME280;4325;42.520;27.448;2023-04-07T09:15:35;101192.66;;;25.33;24.51
8575;BME280;4325;42.520;27.448;2023-04-07T09:18:02;101196.38;;;26.50;21.00
8575;BME280;4325;42.520;27.448;2023-04-07T09:20:54;101188.19;;;28.08;19.96
8575;BME280;4325;42.520;27.448;2023-04-07T09:23:26;101195.84;;;27.63;19.38
8575;BME280;4325;42.520;27.448;2023-04-07T09:25:54;101197.06;;;27.88;19.81
8575;BME280;4325;42.520;27.448;2023-04-07T09:28:22;101196.69;;;30.33;18.58
8575;BME280;4325;42.520;27.448;2023-04-07T09:30:52;101203.69;;;30.49;16.97
8575;BME280;4325;42.520;27.448;2023-04-07T09:33:26;101197.94;;;29.81;17.63
8575;BME280;4325;42.520;27.448;2023-04-07T09:35:53;101197.63;;;31.83;17.37
8575;BME280;4325;42.520;27.448;2023-04-07T09:38:20;101200.69;;;34.01;15.49
8575;BME280;4325;42.520;27.448;2023-04-07T09:40:47;101199.03;;;32.90;15.24
8575;BME280;4325;42.520;27.448;2023-04-07T09:43:16;101197.03;;;32.80;15.93
8575;BME280;4325;42.520;27.448;2023-04-07T09:45:44;101199.69;;;34.25;15.25
8575;BME280;4325;42.520;27.448;2023-04-07T09:48:18;101198.00;;;33.32;15.00
8575;BME280;4325;42.520;27.448;2023-04-07T09:50:45;101203.63;;;27.27;19.13
8575;BME280;4325;42.520;27.448;2023-04-07T09:53:14;101193.06;;;27.02;19.74
8575;BME280;4325;42.520;27.448;2023-04-07T09:55:41;101192.63;;;25.92;20.72
8575;BME280;4325;42.520;27.448;2023-04-07T09:58:11;101206.75;;;27.03;19.81
8575;BME280;4325;42.520;27.448;2023-04-07T10:00:38;101194.84;;;28.83;18.60
8575;BME280;4325;42.520;27.448;2023-04-07T10:03:08;101192.06;;;30.03;17.88
8575;BME280;4325;42.520;27.448;2023-04-07T10:05:35;101195.31;;;30.09;17.85
8575;BME280;4325;42.520;27.448;2023-04-07T10:08:04;101190.31;;;32.24;15.98
8575;BME280;4325;42.520;27.448;2023-04-07T10:10:31;101196.44;;;33.20;14.67
8575;BME280;4325;42.520;27.448;2023-04-07T10:12:59;101190.66;;;35.04;15.00
8575;BME280;4325;42.520;27.448;2023-04-07T10:15:27;101199.97;;;31.35;17.00
8575;BME280;4325;42.520;27.448;2023-04-07T10:17:54;101194.53;;;28.88;20.49
8575;BME280;4325;42.520;27.448;2023-04-07T10:20:23;101195.66;;;26.72;20.60
8575;BME280;4325;42.520;27.448;2023-04-07T10:22:52;101197.88;;;23.75;22.85
8575;BME280;4325;42.520;27.448;2023-04-07T10:25:23;101194.81;;;23.11;26.53
8575;BME280;4325;42.520;27.448;2023-04-07T10:27:53;101192.47;;;22.80;26.94
8575;BME280;4325;42.520;27.448;2023-04-07T10:30:25;101179.78;;;21.62;26.15
8575;BME280;4325;42.520;27.448;2023-04-07T10:32:53;101171.72;;;19.77;27.89
8575;BME280;4325;42.520;27.448;2023-04-07T10:35:21;101191.69;;;18.96;29.24
8575;BME280;4325;42.520;27.448;2023-04-07T10:38:11;101203.59;;;18.52;30.42
8575;BME280;4325;42.520;27.448;2023-04-07T10:40:42;101192.19;;;18.04;31.30
8575;BME280;4325;42.520;27.448;2023-04-07T10:43:10;101195.25;;;17.35;32.03
8575;BME280;4325;42.520;27.448;2023-04-07T10:45:52;101197.78;;;17.63;32.83
8575;BME280;4325;42.520;27.448;2023-04-07T10:48:21;101198.03;;;16.89;33.71
8575;BME280;4325;42.520;27.448;2023-04-07T10:51:18;101203.06;;;16.68;34.73
8575;BME280;4325;42.520;27.448;2023-04-07T10:54:19;101195.50;;;16.36;34.53
8575;BME280;4325;42.520;27.448;2023-04-07T10:57:10;101185.06;;;16.84;34.81
8575;BME280;4325;42.520;27.448;2023-04-07T10:59:39;101194.19;;;17.03;33.67
8575;BME280;4325;42.520;27.448;2023-04-07T11:02:31;101188.44;;;17.13;33.74
8575;BME280;4325;42.520;27.448;2023-04-07T11:04:59;101188.91;;;18.02;33.43
8575;BME280;4325;42.520;27.448;2023-04-07T11:07:44;101181.50;;;19.13;33.54
8575;BME280;4325;42.520;27.448;2023-04-07T11:10:13;101181.94;;;19.60;31.75
8575;BME280;4325;42.520;27.448;2023-04-07T11:12:41;101176.34;;;19.51;30.43
8575;BME280;4325;42.520;27.448;2023-04-07T11:15:19;101179.03;;;18.81;31.22
8575;BME280;4325;42.520;27.448;2023-04-07T11:18:15;101176.31;;;18.90;31.35
8575;BME280;4325;42.520;27.448;2023-04-07T11:20:44;101168.66;;;20.05;30.08
8575;BME280;4325;42.520;27.448;2023-04-07T11:23:12;101178.50;;;21.60;29.11
8575;BME280;4325;42.520;27.448;2023-04-07T11:25:42;101167.09;;;23.99;29.69
8575;BME280;4325;42.520;27.448;2023-04-07T11:28:10;101176.72;;;26.31;26.34
8575;BME280;4325;42.520;27.448;2023-04-07T11:30:38;101171.28;;;26.76;23.91
8575;BME280;4325;42.520;27.448;2023-04-07T11:33:13;101175.03;;;26.64;23.00
8575;BME280;4325;42.520;27.448;2023-04-07T11:35:47;101169.63;;;27.13;23.40
8575;BME280;4325;42.520;27.448;2023-04-07T11:38:14;101163.72;;;27.41;21.17
8575;BME280;4325;42.520;27.448;2023-04-07T11:40:42;101164.03;;;27.85;21.77
8575;BME280;4325;42.520;27.448;2023-04-07T11:43:16;101160.66;;;28.54;21.28
8575;BME280;4325;42.520;27.448;2023-04-07T11:45:44;101163.59;;;30.30;20.72
8575;BME280;4325;42.520;27.448;2023-04-07T11:48:28;101160.38;;;32.09;18.45
8575;BME280;4325;42.520;27.448;2023-04-07T11:50:55;101157.13;;;34.55;16.30
8575;BME280;4325;42.520;27.448;2023-04-07T11:53:26;101163.19;;;38.41;15.18
8575;BME280;4325;42.520;27.448;2023-04-07T11:56:05;101160.22;;;40.55;12.43
8575;BME280;4325;42.520;27.448;2023-04-07T11:58:34;101170.38;;;39.79;12.70
8575;BME280;4325;42.520;27.448;2023-04-07T12:01:02;101170.38;;;37.20;13.14
8575;BME280;4325;42.520;27.448;2023-04-07T12:03:31;101163.19;;;33.24;15.45
8575;BME280;4325;42.520;27.448;2023-04-07T12:05:58;101166.16;;;35.10;14.94
8575;BME280;4325;42.520;27.448;2023-04-07T12:08:42;101158.56;;;34.33;15.71
8575;BME280;4325;42.520;27.448;2023-04-07T12:11:29;101149.63;;;32.77;16.68
8575;BME280;4325;42.520;27.448;2023-04-07T12:13:57;101156.91;;;32.81;17.49
8575;BME280;4325;42.520;27.448;2023-04-07T12:16:24;101151.41;;;32.35;16.09
8575;BME280;4325;42.520;27.448;2023-04-07T12:18:51;101157.25;;;29.89;17.82
8575;BME280;4325;42.520;27.448;2023-04-07T12:21:19;101151.19;;;28.69;19.21
8575;BME280;4325;42.520;27.448;2023-04-07T12:23:46;101149.16;;;29.00;19.60
8575;BME280;4325;42.520;27.448;2023-04-07T12:26:13;101158.94;;;28.46;19.30
8575;BME280;4325;42.520;27.448;2023-04-07T12:28:41;101161.88;;;30.15;18.99
8575;BME280;4325;42.520;27.448;2023-04-07T12:31:08;101160.91;;;32.91;17.55
8575;BME280;4325;42.520;27.448;2023-04-07T12:33:35;101164.91;;;34.81;16.20
8575;BME280;4325;42.520;27.448;2023-04-07T12:36:02;101153.00;;;36.16;15.55
8575;BME280;4325;42.520;27.448;2023-04-07T12:38:29;101149.50;;;37.23;15.44
8575;BME280;4325;42.520;27.448;2023-04-07T12:40:56;101146.84;;;37.81;14.80
8575;BME280;4325;42.520;27.448;2023-04-07T12:43:27;101162.69;;;37.17;13.24
8575;BME280;4325;42.520;27.448;2023-04-07T12:45:56;101159.03;;;37.17;14.71
8575;BME280;4325;42.520;27.448;2023-04-07T12:48:24;101155.75;;;38.44;13.85
8575;BME280;4325;42.520;27.448;2023-04-07T12:50:52;101166.53;;;36.32;13.86
8575;BME280;4325;42.520;27.448;2023-04-07T12:53:19;101158.94;;;35.56;15.10
8575;BME280;4325;42.520;27.448;2023-04-07T12:55:47;101157.59;;;35.87;15.06
8575;BME280;4325;42.520;27.448;2023-04-07T12:58:14;101160.31;;;34.23;15.55
8575;BME280;4325;42.520;27.448;2023-04-07T13:00:41;101153.06;;;33.74;15.97
8575;BME280;4325;42.520;27.448;2023-04-07T13:03:09;101167.56;;;33.83;15.54
8575;BME280;4325;42.520;27.448;2023-04-07T13:05:36;101170.38;;;33.39;15.80
8575;BME280;4325;42.520;27.448;2023-04-07T13:08:04;101170.81;;;32.40;16.32
8575;BME280;4325;42.520;27.448;2023-04-07T13:10:32;101173.88;;;28.80;18.42